Time;durP1;ratioP1;P1;durP2;ratioP2;P2;SDS_P1;SDS_P2;PMS_P1;PMS_P2;Temp;Humidity;BMP_temperature;BMP_pressure;BME280_temperature;BME280_humidity;BME280_pressure;Samples;Min_cycle;Max_cycle;Signal;HPM_P1;HPM_P2
2021/06/25 00:03:29;;;;;;;4.17;1.90;;;;;;;16.84;78.34;100757.75;5171010;56;1138668;-84
2021/06/25 00:08:34;;;;;;;2.20;1.90;;;;;;;16.85;78.55;100751.42;5170972;55;1138665;-83
2021/06/25 00:13:40;;;;;;;4.13;1.60;;;;;;;16.82;78.59;100773.93;5171090;56;1138596;-83
2021/06/25 00:18:46;;;;;;;1.80;1.70;;;;;;;16.76;78.62;100763.88;5131907;55;1138776;-84
2021/06/25 00:23:52;;;;;;;2.47;2.37;;;;;;;16.74;78.65;100754.33;5085821;57;1138536;-83
2021/06/25 00:28:58;;;;;;;3.57;2.27;;;;;;;16.67;78.69;100740.73;5085697;57;1138765;-80
2021/06/25 00:34:04;;;;;;;3.23;2.50;;;;;;;16.66;79.02;100758.24;5069120;57;1138732;-79
2021/06/25 00:39:10;;;;;;;2.70;2.47;;;;;;;16.65;78.82;100765.95;5065692;57;1141498;-79
2021/06/25 00:44:20;;;;;;;4.03;2.55;;;;;;;16.58;79.04;100764.33;5072412;57;1138781;-82
2021/06/25 00:49:26;;;;;;;3.33;3.02;;;;;;;16.48;79.16;100763.08;5072577;57;1138676;-81
2021/06/25 00:54:32;;;;;;;6.23;3.07;;;;;;;16.38;79.22;100759.61;5072278;57;1138630;-84
2021/06/25 00:59:39;;;;;;;4.17;2.70;;;;;;;16.30;79.44;100764.88;5072453;57;1138590;-82
2021/06/25 01:04:45;;;;;;;2.83;2.63;;;;;;;16.32;79.73;100773.58;5072277;56;1139134;-80
2021/06/25 01:09:52;;;;;;;3.00;2.80;;;;;;;16.27;79.78;100773.17;5072020;57;1138673;-81
2021/06/25 01:14:58;;;;;;;4.40;2.53;;;;;;;16.27;80.04;100777.67;5072287;57;1138954;-81
2021/06/25 01:20:08;;;;;;;3.50;3.20;;;;;;;16.39;80.09;100787.14;5078496;57;1138629;-81
2021/06/25 01:25:23;;;;;;;5.73;2.50;;;;;;;16.35;79.97;100783.92;5081009;57;1144483;-79
2021/06/25 01:30:34;;;;;;;3.95;2.87;;;;;;;16.40;80.04;100800.34;5081029;57;1138780;-80
2021/06/25 01:35:40;;;;;;;6.47;3.37;;;;;;;16.40;80.12;100807.02;5120670;56;1138676;-82
2021/06/25 01:40:47;;;;;;;3.67;3.20;;;;;;;16.37;80.00;100811.31;5139087;56;1138683;-80
2021/06/25 01:45:55;;;;;;;3.60;3.30;;;;;;;16.32;80.35;100812.28;5139151;56;1138728;-84
2021/06/25 01:51:00;;;;;;;14.90;4.87;;;;;;;16.41;80.53;100808.70;5139358;56;1138673;-82
2021/06/25 01:56:06;;;;;;;6.77;4.30;;;;;;;16.40;80.35;100791.50;5138788;56;1140855;-78
2021/06/25 02:01:17;;;;;;;13.23;5.57;;;;;;;16.44;80.45;100784.88;5139289;56;1138680;-79
2021/06/25 02:06:23;;;;;;;13.98;5.78;;;;;;;16.42;80.48;100783.69;5138905;56;1140666;-83
2021/06/25 02:11:29;;;;;;;7.65;4.03;;;;;;;16.41;80.26;100784.67;5139074;56;1140892;-82
2021/06/25 02:16:35;;;;;;;4.27;3.90;;;;;;;16.47;80.40;100772.56;5137041;56;1138761;-83
2021/06/25 02:21:41;;;;;;;8.00;3.87;;;;;;;16.62;80.66;100771.55;5054546;57;1138559;-84
2021/06/25 02:26:47;;;;;;;6.33;4.47;;;;;;;16.66;80.40;100770.27;5054655;57;1138856;-82
2021/06/25 02:31:53;;;;;;;8.17;4.07;;;;;;;16.76;80.79;100771.89;5054609;57;1138887;-80
2021/06/25 02:37:00;;;;;;;7.83;3.60;;;;;;;16.94;80.80;100769.72;5071785;56;1138800;-80
2021/06/25 02:42:06;;;;;;;8.73;3.90;;;;;;;17.03;80.14;100751.41;5083046;56;1139055;-80
2021/06/25 02:47:12;;;;;;;4.35;3.22;;;;;;;17.05;80.16;100754.27;5074640;56;1138586;-80
2021/06/25 02:52:19;;;;;;;6.95;2.62;;;;;;;17.03;79.81;100738.05;5082819;57;1138765;-82
2021/06/25 02:57:25;;;;;;;11.03;3.37;;;;;;;17.02;79.69;100730.52;5109828;56;1138830;-82
2021/06/25 03:02:30;;;;;;;7.60;3.98;;;;;;;16.94;79.58;100726.47;5127145;56;1140775;-84
2021/06/25 03:07:36;;;;;;;9.57;4.10;;;;;;;17.01;80.00;100709.30;5124634;56;1138554;-82
2021/06/25 03:12:42;;;;;;;5.80;3.63;;;;;;;17.07;80.11;100722.05;5122237;56;1138647;-82
2021/06/25 03:17:47;;;;;;;6.30;3.43;;;;;;;17.11;80.05;100726.91;5126844;56;1138813;-81
2021/06/25 03:22:53;;;;;;;4.40;3.33;;;;;;;17.17;79.74;100733.47;5168228;56;1138619;-85
2021/06/25 03:27:59;;;;;;;8.73;3.70;;;;;;;17.20;79.78;100730.00;5168158;56;1138729;-81
2021/06/25 03:33:05;;;;;;;7.13;3.70;;;;;;;17.21;79.81;100726.33;5168135;56;1138972;-81
2021/06/25 03:38:11;;;;;;;4.03;3.73;;;;;;;17.24;79.82;100739.88;5167448;55;1138716;-79
2021/06/25 03:43:16;;;;;;;8.63;4.30;;;;;;;17.11;79.11;100768.33;5166359;56;1138726;-83
2021/06/25 03:48:22;;;;;;;7.60;5.05;;;;;;;17.11;79.48;100776.88;5169197;56;1138624;-86
2021/06/25 03:53:28;;;;;;;11.03;4.28;;;;;;;16.93;79.36;100770.70;5169029;56;1138714;-83
2021/06/25 03:58:35;;;;;;;6.80;4.53;;;;;;;16.76;79.57;100784.41;5168114;56;1140649;-84
2021/06/25 04:03:41;;;;;;;8.93;5.87;;;;;;;16.65;80.01;100779.30;5166755;56;1138636;-80
2021/06/25 04:08:49;;;;;;;13.87;6.50;;;;;;;16.57;80.25;100797.36;5125712;56;1138705;-82
2021/06/25 04:13:55;;;;;;;9.53;5.87;;;;;;;16.47;80.61;100793.43;5124503;56;1140676;-85
2021/06/25 04:19:00;;;;;;;8.67;4.97;;;;;;;16.40;81.03;100807.52;5123138;56;1138888;-83
2021/06/25 04:24:07;;;;;;;7.53;3.57;;;;;;;16.34;81.42;100788.95;5126403;56;1138612;-82
2021/06/25 04:29:14;;;;;;;5.43;4.97;;;;;;;16.31;81.87;100775.90;5124189;56;1138628;-82
2021/06/25 04:34:20;;;;;;;6.90;4.65;;;;;;;16.32;82.03;100756.72;5122977;56;1138725;-80
2021/06/25 04:39:26;;;;;;;7.90;4.67;;;;;;;16.41;82.17;100743.30;5131549;56;1138710;-84
2021/06/25 04:44:31;;;;;;;13.58;5.28;;;;;;;16.57;82.50;100745.29;5152422;56;1138731;-79
2021/06/25 04:49:40;;;;;;;13.43;6.23;;;;;;;16.60;82.10;100746.33;5168867;56;1140734;-80
2021/06/25 04:54:45;;;;;;;6.07;4.67;;;;;;;16.68;82.24;100750.92;5168862;55;1140952;-80
2021/06/25 04:59:51;;;;;;;12.47;6.47;;;;;;;16.72;82.28;100751.81;5169129;55;1138944;-83
2021/06/25 05:04:57;;;;;;;9.70;6.27;;;;;;;16.79;82.24;100770.75;5166184;55;1140903;-87
2021/06/25 05:10:03;;;;;;;7.23;5.97;;;;;;;16.88;82.65;100777.34;5167019;55;1138709;-79
2021/06/25 05:15:10;;;;;;;8.63;6.57;;;;;;;16.94;82.55;100770.55;5169518;56;1138607;-82
2021/06/25 05:20:20;;;;;;;9.60;7.30;;;;;;;17.02;83.02;100759.08;5168877;56;1138893;-82
2021/06/25 05:25:25;;;;;;;11.03;7.10;;;;;;;17.08;82.65;100745.95;5150307;56;1138613;-85
2021/06/25 05:30:32;;;;;;;12.30;7.22;;;;;;;17.14;82.48;100760.01;5164587;56;1140887;-82
2021/06/25 05:35:38;;;;;;;14.63;7.00;;;;;;;17.13;82.18;100774.86;5164096;56;1140606;-81
2021/06/25 05:40:45;;;;;;;6.83;6.07;;;;;;;17.13;82.10;100773.52;5164000;56;1140755;-82
2021/06/25 05:45:50;;;;;;;11.20;6.70;;;;;;;17.15;82.03;100772.37;5164163;56;1138686;-81
2021/06/25 05:50:56;;;;;;;4.37;3.97;;;;;;;17.17;81.87;100780.24;5163736;56;1141008;-86
2021/06/25 05:56:02;;;;;;;7.63;6.27;;;;;;;17.15;81.87;100785.74;5164378;56;1138718;-81
2021/06/25 06:01:08;;;;;;;10.63;4.97;;;;;;;17.13;81.64;100783.72;5124960;56;1138601;-80
2021/06/25 06:06:13;;;;;;;7.67;6.57;;;;;;;17.09;81.52;100790.39;5164672;56;1140668;-82
2021/06/25 06:11:20;;;;;;;10.27;5.60;;;;;;;17.05;81.64;100798.86;5164985;56;1138688;-81
2021/06/25 06:16:25;;;;;;;6.12;5.15;;;;;;;17.03;82.02;100801.69;5164678;56;1140750;-83
2021/06/25 06:31:10;;;;;;;6.37;5.78;;;;;;;16.99;81.51;100805.64;5084131;56;1138712;-77
2021/06/25 06:32:09;;;;;;;10.77;5.47;;;;;;;16.73;81.79;100805.58;5085044;56;1138621;-84
2021/06/25 06:37:09;;;;;;;7.87;6.77;;;;;;;16.74;81.68;100818.44;5084959;57;1140880;-82
2021/06/25 06:42:15;;;;;;;6.23;5.53;;;;;;;16.82;81.78;100805.98;5083103;56;1138875;-85
2021/06/25 06:47:20;;;;;;;9.37;7.23;;;;;;;17.01;82.35;100806.83;5077151;56;1138746;-86
2021/06/25 06:52:26;;;;;;;7.70;6.07;;;;;;;17.32;82.56;100796.56;5077137;55;1138769;-81
2021/06/25 06:57:32;;;;;;;9.80;5.63;;;;;;;17.50;81.40;100804.89;5083543;56;1138787;-84
2021/06/25 07:02:39;;;;;;;6.13;5.60;;;;;;;17.57;81.19;100811.28;5035761;57;1138542;-83
2021/06/25 07:07:45;;;;;;;9.07;5.93;;;;;;;17.57;80.61;100812.62;5061192;56;1138674;-85
2021/06/25 07:12:51;;;;;;;6.70;5.83;;;;;;;17.61;80.74;100808.30;5145605;55;1138895;-77
2021/06/25 07:17:56;;;;;;;5.83;5.33;;;;;;;17.61;80.30;100811.81;5148273;55;1138677;-80
2021/06/25 07:23:02;;;;;;;6.03;5.07;;;;;;;17.57;80.70;100805.93;5150905;55;1138913;-81
2021/06/25 07:28:08;;;;;;;8.43;5.63;;;;;;;17.67;81.33;100794.34;5144435;55;1138640;-81
2021/06/25 07:33:14;;;;;;;5.67;4.50;;;;;;;17.88;80.70;100800.96;5143036;55;1138899;-84
2021/06/25 07:38:19;;;;;;;5.60;4.93;;;;;;;18.06;80.84;100790.68;5142707;55;1138598;-85
2021/06/25 07:43:25;;;;;;;7.08;4.80;;;;;;;18.28;80.35;100788.27;5142017;55;1138558;-79
2021/06/25 07:48:30;;;;;;;9.63;5.65;;;;;;;18.50;79.80;100790.83;5139697;56;1138731;-83
2021/06/25 07:53:36;;;;;;;6.55;5.53;;;;;;;18.70;79.05;100794.10;5139753;56;1138592;-78
2021/06/25 07:58:42;;;;;;;6.03;5.42;;;;;;;18.83;78.37;100803.83;5139380;56;1138652;-82
2021/06/25 08:03:48;;;;;;;6.60;5.33;;;;;;;18.89;78.10;100799.66;5139842;56;1138613;-84
2021/06/25 08:08:54;;;;;;;4.17;3.77;;;;;;;19.12;78.16;100801.17;5139795;56;1138794;-78
2021/06/25 08:13:59;;;;;;;6.62;2.83;;;;;;;19.34;75.80;100803.19;5143356;56;1138642;-85
2021/06/25 08:19:07;;;;;;;3.22;2.95;;;;;;;19.24;75.57;100812.76;5109466;56;1138819;-83
2021/06/25 08:24:13;;;;;;;5.10;3.12;;;;;;;19.45;76.09;100812.72;5081380;57;1138660;-78
2021/06/25 08:29:20;;;;;;;3.40;3.20;;;;;;;19.62;76.51;100817.09;5072078;57;1145944;-78
2021/06/25 08:34:26;;;;;;;3.08;2.87;;;;;;;19.77;74.06;100819.41;5081254;56;1138878;-83
2021/06/25 08:39:31;;;;;;;7.17;4.33;;;;;;;19.72;73.81;100816.40;5082067;56;1138811;-83
2021/06/25 08:44:40;;;;;;;4.00;3.55;;;;;;;19.73;74.34;100822.09;5086539;56;1138751;-84
2021/06/25 08:49:48;;;;;;;3.72;3.33;;;;;;;19.98;75.34;100823.73;5162285;56;1138591;-78
2021/06/25 08:54:54;;;;;;;7.90;4.05;;;;;;;20.35;74.96;100824.92;5165861;56;1138531;-79
2021/06/25 09:00:00;;;;;;;3.95;3.40;;;;;;;20.47;72.78;100829.45;5171187;56;1138595;-81
2021/06/25 09:05:13;;;;;;;9.20;3.95;;;;;;;20.54;72.42;100823.69;5171311;56;1138827;-80
2021/06/25 09:10:33;;;;;;;7.58;3.58;;;;;;;20.47;72.08;100828.91;5080608;57;1138822;-81
2021/06/25 09:15:44;;;;;;;5.10;3.20;;;;;;;20.53;72.36;100832.26;5083900;56;1138756;-80
2021/06/25 09:20:52;;;;;;;4.75;3.10;;;;;;;20.73;72.07;100834.00;5041550;57;1138893;-82
2021/06/25 09:26:13;;;;;;;3.70;3.30;;;;;;;20.94;72.15;100835.53;5000645;57;1138828;-81
2021/06/25 09:31:26;;;;;;;6.45;3.47;;;;;;;20.98;70.88;100839.55;5000740;57;1138653;-79
2021/06/25 09:36:37;;;;;;;4.10;3.77;;;;;;;20.82;69.39;100837.47;5000045;57;1138714;-82
2021/06/25 09:41:46;;;;;;;7.95;6.05;;;;;;;20.76;69.41;100838.20;4998806;57;1138819;-79
2021/06/25 09:46:55;;;;;;;9.40;3.77;;;;;;;20.78;70.14;100843.70;5009164;57;1138890;-82
2021/06/25 09:52:04;;;;;;;4.87;3.77;;;;;;;20.93;70.60;100850.52;5062581;57;1138723;-86
2021/06/25 09:57:13;;;;;;;3.92;3.00;;;;;;;20.96;69.21;100855.02;5069368;56;1138539;-84
2021/06/25 10:02:26;;;;;;;2.90;2.70;;;;;;;21.02;70.00;100854.82;5085862;56;1138696;-83
2021/06/25 10:07:33;;;;;;;3.25;2.92;;;;;;;21.12;68.53;100859.95;5071229;57;1138591;-81
2021/06/25 10:12:43;;;;;;;7.40;3.05;;;;;;;21.04;68.25;100852.80;5062257;56;1139022;-83
2021/06/25 10:17:50;;;;;;;5.42;3.00;;;;;;;20.93;68.95;100853.22;5066177;55;1138734;-80
2021/06/25 10:22:57;;;;;;;2.85;2.58;;;;;;;20.84;68.83;100847.03;4969778;56;1138574;-82
2021/06/25 10:28:04;;;;;;;4.03;3.10;;;;;;;20.82;69.30;100842.84;4969567;57;1138727;-87
2021/06/25 10:33:10;;;;;;;7.12;3.65;;;;;;;20.82;69.10;100845.03;5062949;57;1138741;-85
2021/06/25 10:38:16;;;;;;;6.67;3.90;;;;;;;20.76;69.14;100847.09;4969566;57;1138535;-87
2021/06/25 10:43:46;;;;;;;6.75;3.27;;;;;;;20.67;68.76;100832.02;5062803;57;1138778;-82
2021/06/25 10:48:55;;;;;;;3.00;2.80;;;;;;;20.62;69.23;100835.22;4977593;57;1138739;-82
2021/06/25 10:54:23;;;;;;;13.38;3.55;;;;;;;20.61;68.93;100836.27;5013082;56;1138768;-81
2021/06/25 10:59:31;;;;;;;3.75;3.45;;;;;;;20.58;68.74;100840.64;5064525;56;1140835;-84
2021/06/25 11:04:45;;;;;;;4.08;3.47;;;;;;;20.55;68.93;100835.61;5052695;57;1138654;-80
2021/06/25 11:09:58;;;;;;;6.92;4.72;;;;;;;20.64;69.20;100833.70;5052600;57;1138634;-85
2021/06/25 11:15:11;;;;;;;7.12;3.60;;;;;;;20.72;69.40;100829.64;5052601;57;1138644;-80
2021/06/25 11:20:33;;;;;;;4.35;3.62;;;;;;;20.84;69.33;100835.44;5052261;57;1138672;-83
2021/06/25 11:25:50;;;;;;;4.45;4.05;;;;;;;20.85;68.30;100841.15;5052844;57;1138634;-86
2021/06/25 11:31:06;;;;;;;6.40;3.80;;;;;;;20.77;68.27;100844.73;5052529;57;1138632;-83
2021/06/25 11:36:52;;;;;;;8.13;5.83;;;;;;;20.79;68.38;100839.16;5052632;57;1138531;-81
2021/06/25 11:42:02;;;;;;;11.68;5.78;;;;;;;20.71;68.19;100848.13;5052964;57;1138601;-80
2021/06/25 11:47:26;;;;;;;11.22;7.60;;;;;;;20.71;68.44;100852.99;5052538;57;1140831;-80
2021/06/25 11:52:36;;;;;;;6.62;5.92;;;;;;;20.64;68.37;100841.77;5020051;57;1140767;-79
2021/06/25 11:57:43;;;;;;;10.13;6.92;;;;;;;20.61;68.53;100837.61;5009131;56;1138744;-79
2021/06/25 12:03:04;;;;;;;10.93;5.75;;;;;;;20.64;68.48;100844.45;4971376;57;1140655;-78
2021/06/25 12:08:10;;;;;;;7.22;5.65;;;;;;;20.61;68.72;100838.11;4921823;58;1140780;-79
2021/06/25 12:13:17;;;;;;;12.22;5.26;;;;;;;20.54;68.54;100827.72;4938096;57;1138780;-78
2021/06/25 12:18:28;;;;;;;7.85;5.80;;;;;;;20.45;68.51;100818.88;4955024;58;1140895;-79
2021/06/25 12:23:34;;;;;;;10.17;6.23;;;;;;;20.41;68.98;100825.61;4986684;57;1138616;-79
2021/06/25 12:28:41;;;;;;;6.37;5.15;;;;;;;20.35;69.08;100819.55;4990045;57;1140847;-79
2021/06/25 12:33:49;;;;;;;7.75;5.70;;;;;;;20.36;69.46;100802.45;4889884;59;1138773;-78
2021/06/25 12:39:01;;;;;;;8.13;6.12;;;;;;;20.44;70.10;100801.59;5046036;57;1139160;-79
2021/06/25 12:44:07;;;;;;;9.70;7.17;;;;;;;20.59;70.63;100809.23;5048318;57;1138767;-79
2021/06/25 12:49:12;;;;;;;8.95;6.58;;;;;;;20.90;70.87;100806.51;5052373;57;1138704;-81
2021/06/25 12:54:18;;;;;;;9.40;6.22;;;;;;;21.17;70.19;100810.50;5096636;56;1138742;-79
2021/06/25 12:59:27;;;;;;;8.20;5.20;;;;;;;21.50;70.15;100820.00;5026868;57;1138861;-80
2021/06/25 13:04:34;;;;;;;6.55;4.92;;;;;;;21.73;66.63;100822.61;5048895;57;1138678;-80
2021/06/25 13:09:40;;;;;;;6.92;5.90;;;;;;;21.70;66.38;100815.73;5052368;56;1138681;-80
2021/06/25 13:14:57;;;;;;;14.38;5.22;;;;;;;21.70;66.00;100814.90;5052794;57;1138589;-82
2021/06/25 13:20:23;;;;;;;6.85;4.78;;;;;;;21.58;65.94;100815.87;5018996;57;1140893;-79
2021/06/25 13:25:45;;;;;;;7.33;4.87;;;;;;;21.41;65.41;100814.34;5023502;58;1138671;-79
2021/06/25 13:31:06;;;;;;;4.80;4.37;;;;;;;21.36;65.99;100816.26;5106966;56;1138612;-80
2021/06/25 13:36:12;;;;;;;5.03;4.53;;;;;;;21.39;65.77;100816.37;5023165;58;1138642;-79
2021/06/25 13:41:25;;;;;;;7.53;5.00;;;;;;;21.39;64.83;100816.37;5106670;56;1138717;-80
2021/06/25 13:46:40;;;;;;;4.72;4.33;;;;;;;21.31;65.55;100813.77;5023478;58;1138760;-79
2021/06/25 13:51:40;;;;;;;9.50;5.15;;;;;;;21.35;65.87;100812.40;5106081;56;1138793;-79
2021/06/25 13:56:57;;;;;;;6.80;4.92;;;;;;;21.36;65.44;100813.56;5003022;57;1138668;-79
2021/06/25 14:02:03;;;;;;;10.30;5.20;;;;;;;21.41;65.50;100815.69;4998856;57;1138693;-81
2021/06/25 14:07:14;;;;;;;7.45;5.55;;;;;;;21.48;65.11;100807.73;5081091;56;1140700;-78
2021/06/25 14:12:20;;;;;;;9.10;6.20;;;;;;;21.55;65.86;100810.00;5081065;56;1138660;-78
2021/06/25 14:17:38;;;;;;;6.22;5.42;;;;;;;21.73;65.49;100806.46;5057337;56;1138735;-79
2021/06/25 14:22:43;;;;;;;6.90;5.85;;;;;;;21.84;65.28;100801.98;5049355;57;1138977;-80
2021/06/25 14:27:50;;;;;;;6.28;5.62;;;;;;;21.90;65.12;100799.05;5081312;56;1138620;-79
2021/06/25 14:32:57;;;;;;;8.93;5.65;;;;;;;21.89;65.19;100796.02;5049188;57;1138625;-79
2021/06/25 14:38:03;;;;;;;5.85;5.30;;;;;;;22.02;65.19;100793.54;5049230;57;1138699;-82
2021/06/25 14:43:09;;;;;;;5.50;4.90;;;;;;;22.02;64.57;100794.89;5049162;57;1138667;-83
2021/06/25 14:48:14;;;;;;;9.28;5.53;;;;;;;22.00;64.88;100786.98;5133420;56;1139364;-83
2021/06/25 14:53:20;;;;;;;6.85;5.28;;;;;;;22.03;64.82;100790.66;5059139;57;1138558;-83
2021/06/25 14:58:26;;;;;;;5.68;4.88;;;;;;;22.19;65.19;100790.14;5037732;57;1138738;-80
2021/06/25 15:03:31;;;;;;;5.45;4.58;;;;;;;22.29;64.23;100787.50;5129433;56;1138837;-84
2021/06/25 15:08:38;;;;;;;6.78;5.30;;;;;;;22.31;64.23;100781.89;5153830;56;1138714;-84
2021/06/25 15:13:44;;;;;;;5.30;4.83;;;;;;;22.36;63.33;100786.21;5077226;56;1138769;-78
2021/06/25 15:18:51;;;;;;;5.25;4.85;;;;;;;22.32;63.19;100783.05;5077395;56;1138712;-83
2021/06/25 15:23:56;;;;;;;6.50;5.78;;;;;;;22.35;63.61;100777.80;5077644;56;1138548;-80
2021/06/25 15:29:02;;;;;;;12.33;6.90;;;;;;;22.36;63.38;100774.08;5077588;56;1138805;-82
2021/06/25 15:34:07;;;;;;;7.37;5.58;;;;;;;22.32;62.99;100787.09;5077008;56;1140920;-83
2021/06/25 15:39:15;;;;;;;5.42;4.58;;;;;;;22.37;63.47;100782.49;5077279;56;1138775;-78
2021/06/25 15:44:21;;;;;;;8.05;4.50;;;;;;;22.41;63.21;100771.66;5093524;56;1138710;-81
2021/06/25 15:49:27;;;;;;;5.75;4.83;;;;;;;22.41;62.88;100778.41;5085011;56;1138702;-77
2021/06/25 15:54:32;;;;;;;5.50;4.25;;;;;;;22.32;62.65;100784.91;5062712;56;1138991;-77
2021/06/25 15:59:38;;;;;;;5.50;4.93;;;;;;;22.35;63.38;100773.76;5105003;56;1138867;-78
2021/06/25 16:04:44;;;;;;;4.85;4.35;;;;;;;22.36;63.02;100775.43;5138262;56;1138646;-77
2021/06/25 16:09:58;;;;;;;5.90;4.83;;;;;;;22.32;62.92;100780.36;5138184;56;1138698;-79
2021/06/25 16:14:58;;;;;;;4.62;4.22;;;;;;;22.33;62.54;100775.80;5137610;56;1138886;-80
2021/06/25 16:20:05;;;;;;;5.58;4.55;;;;;;;22.36;62.62;100785.70;5200841;55;1138795;-82
2021/06/25 16:25:11;;;;;;;10.43;4.05;;;;;;;22.39;62.83;100783.14;5225552;55;1138582;-81
2021/06/25 16:30:18;;;;;;;3.22;2.85;;;;;;;22.36;62.79;100783.00;5225337;55;1140716;-80
2021/06/25 16:35:23;;;;;;;5.42;3.87;;;;;;;22.39;61.80;100785.33;5225565;55;1138667;-79
2021/06/25 16:40:30;;;;;;;14.45;7.50;;;;;;;22.40;61.70;100784.81;5225645;55;1138715;-80
2021/06/25 16:45:36;;;;;;;8.38;6.03;;;;;;;22.42;62.22;100775.52;5225655;55;1140749;-77
2021/06/25 16:50:42;;;;;;;6.30;5.13;;;;;;;22.42;63.15;100780.08;5225792;55;1138686;-82
2021/06/25 16:55:48;;;;;;;5.05;4.17;;;;;;;22.35;63.55;100778.64;5225600;55;1138591;-80
2021/06/25 17:00:54;;;;;;;7.97;5.25;;;;;;;22.44;63.72;100780.22;5226258;55;1138889;-76
2021/06/25 17:06:01;;;;;;;7.22;4.78;;;;;;;22.37;62.85;100777.94;5227037;55;1138667;-77
2021/06/25 17:11:06;;;;;;;6.17;5.15;;;;;;;22.30;63.02;100785.64;5226580;55;1138699;-77
2021/06/25 17:16:12;;;;;;;5.70;5.22;;;;;;;22.22;63.00;100778.98;5226619;55;1138981;-77
2021/06/25 17:21:18;;;;;;;6.20;4.95;;;;;;;22.14;62.96;100775.91;5226894;55;1138805;-84
2021/06/25 17:26:23;;;;;;;11.15;7.85;;;;;;;22.05;63.06;100782.40;5227022;55;1138680;-84
2021/06/25 17:31:29;;;;;;;4.65;4.30;;;;;;;22.06;63.86;100782.22;5226804;55;1140689;-84
2021/06/25 17:36:35;;;;;;;5.00;3.67;;;;;;;22.17;63.06;100781.41;5226809;55;1138862;-82
2021/06/25 17:41:40;;;;;;;4.67;4.22;;;;;;;22.13;62.10;100778.27;5226947;55;1138695;-83
2021/06/25 17:46:46;;;;;;;15.05;5.20;;;;;;;22.09;62.45;100786.40;5227093;55;1138810;-81
2021/06/25 17:51:52;;;;;;;4.62;3.62;;;;;;;22.03;62.63;100788.48;5226539;55;1140803;-78
2021/06/25 17:56:58;;;;;;;3.98;3.65;;;;;;;22.00;63.48;100789.69;5226563;55;1138606;-81
2021/06/25 18:02:04;;;;;;;5.75;3.37;;;;;;;21.90;63.76;100786.41;5226207;55;1138800;-82
2021/06/25 18:07:10;;;;;;;5.72;3.05;;;;;;;21.69;64.14;100789.84;5225543;55;1138673;-83
2021/06/25 18:12:16;;;;;;;6.08;4.97;;;;;;;21.69;64.14;100789.84;5225901;55;1138589;-79
2021/06/25 18:17:21;;;;;;;10.95;3.80;;;;;;;21.61;64.69;100790.44;5210440;55;1138673;-77
2021/06/25 18:22:27;;;;;;;5.50;3.62;;;;;;;21.51;64.89;100793.41;5138349;56;1140654;-79
2021/06/25 18:27:33;;;;;;;4.60;3.00;;;;;;;21.37;65.09;100791.02;5138736;55;1138683;-84
2021/06/25 18:32:40;;;;;;;4.37;2.50;;;;;;;21.24;65.32;100792.13;5138683;55;1138704;-80
2021/06/25 18:37:46;;;;;;;5.10;3.52;;;;;;;21.10;65.40;100806.34;5138365;56;1138680;-82
2021/06/25 18:42:52;;;;;;;5.62;4.33;;;;;;;21.00;65.84;100802.56;5138143;56;1138591;-82
2021/06/25 18:47:59;;;;;;;4.78;4.37;;;;;;;20.97;66.35;100802.07;5138232;56;1138589;-78
2021/06/25 18:53:05;;;;;;;5.70;5.03;;;;;;;20.96;66.58;100811.16;5138869;56;1138618;-82
2021/06/25 18:58:11;;;;;;;10.08;5.90;;;;;;;20.91;66.84;100822.47;5138728;56;1138741;-80
2021/06/25 19:03:16;;;;;;;7.80;5.20;;;;;;;20.81;66.97;100812.43;5139345;56;1140933;-80
2021/06/25 19:08:22;;;;;;;7.25;5.55;;;;;;;20.77;67.26;100808.95;5139992;56;1138759;-78
2021/06/25 19:13:29;;;;;;;12.45;5.90;;;;;;;20.78;67.49;100813.32;5147185;55;1138524;-77
2021/06/25 19:18:35;;;;;;;16.25;10.55;;;;;;;20.80;67.55;100824.70;5150221;55;1140878;-80
2021/06/25 19:23:40;;;;;;;17.15;8.50;;;;;;;20.81;67.78;100831.76;5139661;56;1142922;-82
2021/06/25 19:28:46;;;;;;;17.20;10.20;;;;;;;20.76;67.77;100836.34;5139911;56;1140884;-81
2021/06/25 19:33:53;;;;;;;11.83;8.88;;;;;;;20.77;68.32;100834.50;5139506;56;1143109;-79
2021/06/25 19:38:58;;;;;;;13.18;8.68;;;;;;;20.82;68.43;100837.47;5139373;56;1141086;-82
2021/06/25 19:44:05;;;;;;;21.12;11.53;;;;;;;20.93;68.57;100844.61;5139539;56;1140728;-82
2021/06/25 19:49:11;;;;;;;23.00;10.70;;;;;;;21.04;68.53;100851.45;5139320;56;1142923;-82
2021/06/25 19:54:17;;;;;;;19.05;10.63;;;;;;;21.13;68.52;100858.43;5139138;56;1142732;-83
2021/06/25 19:59:23;;;;;;;13.58;9.75;;;;;;;21.16;68.46;100874.22;5139217;56;1143041;-82
2021/06/25 20:04:28;;;;;;;12.13;8.85;;;;;;;21.14;68.40;100880.28;5139090;56;1140787;-83
2021/06/25 20:09:34;;;;;;;12.28;8.90;;;;;;;20.95;67.68;100890.98;5138581;56;1140942;-86
2021/06/25 20:14:41;;;;;;;19.95;8.20;;;;;;;20.69;67.95;100891.30;5138824;56;1140799;-83
2021/06/25 20:19:47;;;;;;;12.33;8.00;;;;;;;20.69;68.56;100902.05;5160553;55;1140977;-78
2021/06/25 20:24:53;;;;;;;12.63;6.67;;;;;;;20.54;68.15;100895.74;5171601;55;1140999;-80
2021/06/25 20:29:59;;;;;;;11.20;6.65;;;;;;;20.29;68.46;100897.66;5171708;55;1140931;-84
2021/06/25 20:35:07;;;;;;;9.35;7.25;;;;;;;20.05;68.89;100896.87;5183987;55;1140842;-83
2021/06/25 20:40:15;;;;;;;12.10;10.45;;;;;;;19.89;69.61;100904.44;5167166;55;1138895;-84
2021/06/25 20:45:21;;;;;;;12.13;7.25;;;;;;;19.90;69.94;100905.63;5171524;55;1142753;-80
2021/06/25 20:50:27;;;;;;;7.42;6.00;;;;;;;19.83;69.92;100897.09;5171555;55;1140795;-84
2021/06/25 20:55:33;;;;;;;5.37;4.90;;;;;;;19.65;70.25;100891.91;5165926;55;1138587;-82
2021/06/25 21:00:39;;;;;;;8.26;5.16;;;;;;;19.42;70.69;100894.37;5171234;55;1138670;-82
2021/06/25 21:05:45;;;;;;;9.75;6.33;;;;;;;19.27;71.06;100896.03;5145089;56;1139076;-83
2021/06/25 21:10:51;;;;;;;5.40;4.83;;;;;;;19.28;71.62;100901.73;5138831;55;1138710;-86
2021/06/25 21:15:57;;;;;;;9.63;6.33;;;;;;;19.42;72.19;100893.53;5160145;55;1138760;-84
2021/06/25 21:21:03;;;;;;;12.55;7.83;;;;;;;19.61;72.67;100885.19;5154359;55;1138674;-85
2021/06/25 21:26:09;;;;;;;6.72;5.62;;;;;;;19.64;72.37;100887.03;5171539;55;1140833;-83
2021/06/25 21:31:14;;;;;;;12.07;9.33;;;;;;;19.68;72.36;100888.05;5171674;55;1138607;-81
2021/06/25 21:36:20;;;;;;;15.68;8.65;;;;;;;19.53;72.12;100885.20;5171614;55;1140670;-84
2021/06/25 21:41:28;;;;;;;12.50;7.44;;;;;;;19.43;72.40;100899.23;5171867;55;1140881;-88
2021/06/25 21:46:33;;;;;;;10.28;6.60;;;;;;;19.31;72.49;100908.95;5170999;55;1165404;-82
2021/06/25 21:51:40;;;;;;;9.15;5.85;;;;;;;19.16;72.82;100896.36;5171570;55;1140827;-81
2021/06/25 21:56:46;;;;;;;8.50;5.92;;;;;;;19.00;73.06;100892.31;5171725;55;1138716;-82
2021/06/25 22:01:53;;;;;;;7.47;5.85;;;;;;;18.81;73.09;100891.59;5171692;55;1138732;-86
2021/06/25 22:07:00;;;;;;;6.40;5.83;;;;;;;18.69;73.47;100898.75;5175521;55;1138665;-85
2021/06/25 22:12:06;;;;;;;7.45;5.70;;;;;;;18.61;73.49;100900.92;5197794;55;1138733;-82
2021/06/25 22:17:12;;;;;;;7.67;6.17;;;;;;;18.71;74.21;100894.92;5189873;55;1138639;-84
2021/06/25 22:22:17;;;;;;;7.72;6.72;;;;;;;18.88;74.46;100897.98;5141847;56;1138860;-83
2021/06/25 22:27:25;;;;;;;12.88;8.40;;;;;;;18.98;74.09;100903.19;5141959;56;1138552;-85
2021/06/25 22:32:30;;;;;;;12.20;8.65;;;;;;;19.08;73.98;100903.91;5141818;56;1140641;-86
2021/06/25 22:37:36;;;;;;;10.35;8.40;;;;;;;19.20;73.89;100905.77;5143338;56;1140711;-80
2021/06/25 22:42:43;;;;;;;10.75;7.80;;;;;;;19.27;73.75;100912.97;5136343;56;1141159;-81
2021/06/25 22:47:49;;;;;;;10.03;6.92;;;;;;;19.32;73.60;100903.09;5141891;56;1140732;-86
2021/06/25 22:52:55;;;;;;;8.90;6.00;;;;;;;19.28;72.98;100899.89;5141697;56;1140838;-88
2021/06/25 22:58:01;;;;;;;8.48;6.33;;;;;;;19.17;72.78;100900.22;5141815;56;1138558;-84
2021/06/25 23:03:07;;;;;;;9.20;7.72;;;;;;;19.10;72.81;100907.23;5141936;56;1138838;-81
2021/06/25 23:08:16;;;;;;;7.92;7.12;;;;;;;18.98;72.75;100899.17;5141542;56;1138821;-80
2021/06/25 23:13:20;;;;;;;20.25;9.03;;;;;;;18.97;73.24;100904.19;5139622;56;1138559;-84
2021/06/25 23:18:26;;;;;;;10.98;7.00;;;;;;;18.94;72.99;100909.91;5148237;55;1140667;-81